createdAt,value
2019-02-14T00:02:20.307Z,28.77
2019-02-14T00:04:47.945Z,29.87
2019-02-14T00:07:15.312Z,27.37
2019-02-14T00:09:44.039Z,29.20
2019-02-14T00:12:11.403Z,27.93
2019-02-14T00:14:38.954Z,26.03
2019-02-14T00:17:06.370Z,27.30
2019-02-14T00:19:34.217Z,26.20
2019-02-14T00:22:01.726Z,23.67
2019-02-14T00:24:29.182Z,24.53
2019-02-14T00:26:58.243Z,23.23
2019-02-14T00:29:26.142Z,24.20
2019-02-14T00:31:53.649Z,23.30
2019-02-14T00:34:21.265Z,22.93
2019-02-14T00:36:48.764Z,23.27
2019-02-14T00:39:16.173Z,24.30
2019-02-14T00:41:43.678Z,24.27
2019-02-14T00:44:11.150Z,23.77
2019-02-14T00:46:38.592Z,23.67
2019-02-14T00:49:06.075Z,24.07
2019-02-14T00:51:33.567Z,24.67
2019-02-14T00:54:01.020Z,23.87
2019-02-14T00:56:28.745Z,23.43
2019-02-14T00:58:56.084Z,23.70
2019-02-14T01:01:23.459Z,22.43
2019-02-14T01:03:50.852Z,23.27
2019-02-14T01:06:18.311Z,22.03
2019-02-14T01:08:45.713Z,23.67
2019-02-14T01:11:13.319Z,23.23
2019-02-14T01:13:40.691Z,24.53
2019-02-14T01:16:08.142Z,23.47
2019-02-14T01:18:35.707Z,25.23
2019-02-14T01:21:03.160Z,23.30
2019-02-14T01:23:30.766Z,23.13
2019-02-14T01:25:58.113Z,21.43
2019-02-14T01:28:25.537Z,23.63
2019-02-14T01:30:52.877Z,22.63
2019-02-14T01:33:20.306Z,32.30
2019-02-14T01:35:47.710Z,35.10
2019-02-14T01:38:15.199Z,37.03
2019-02-14T01:40:42.695Z,31.87
2019-02-14T01:43:10.114Z,28.73
2019-02-14T01:45:37.642Z,26.60
2019-02-14T01:48:04.939Z,25.43
2019-02-14T01:50:32.763Z,24.93
2019-02-14T01:53:00.114Z,26.70
2019-02-14T01:55:27.464Z,27.50
2019-02-14T01:57:54.901Z,27.63
2019-02-14T02:00:22.293Z,30.13
2019-02-14T02:02:49.843Z,32.33
2019-02-14T02:05:17.259Z,30.60
2019-02-14T02:07:44.696Z,31.17
2019-02-14T02:10:12.170Z,30.80
2019-02-14T02:12:39.607Z,31.40
2019-02-14T02:15:08.732Z,29.77
2019-02-14T02:17:36.345Z,29.87
2019-02-14T02:20:04.583Z,31.23
2019-02-14T02:22:31.972Z,29.57
2019-02-14T02:24:59.511Z,31.23
2019-02-14T02:27:26.910Z,29.80
2019-02-14T02:29:55.529Z,28.43
2019-02-14T02:32:22.989Z,29.33
2019-02-14T02:34:50.446Z,29.93
2019-02-14T02:37:17.897Z,28.37
2019-02-14T02:39:45.361Z,28.40
2019-02-14T02:42:12.812Z,28.17
2019-02-14T02:44:40.194Z,26.97
2019-02-14T02:47:07.748Z,25.73
2019-02-14T02:49:35.157Z,24.87
2019-02-14T02:52:02.613Z,26.47
2019-02-14T02:54:30.019Z,25.20
2019-02-14T02:56:59.047Z,24.87
2019-02-14T02:59:26.415Z,24.60
2019-02-14T03:01:53.754Z,25.63
2019-02-14T03:04:21.102Z,26.60
2019-02-14T03:06:48.547Z,24.93
2019-02-14T03:09:16.026Z,24.33
2019-02-14T03:11:43.387Z,25.03
2019-02-14T03:14:10.909Z,25.53
2019-02-14T03:16:38.711Z,24.83
2019-02-14T03:19:06.187Z,25.63
2019-02-14T03:21:33.677Z,25.93
2019-02-14T03:24:01.076Z,25.17
2019-02-14T03:26:28.591Z,24.90
2019-02-14T03:28:55.989Z,24.30
2019-02-14T03:31:23.476Z,24.83
2019-02-14T03:33:50.938Z,24.07
2019-02-14T03:36:19.425Z,24.13
2019-02-14T03:38:47.073Z,24.43
2019-02-14T03:41:14.543Z,25.40
2019-02-14T03:43:42.222Z,25.03
2019-02-14T03:46:09.690Z,22.33
2019-02-14T03:48:37.144Z,22.73
2019-02-14T03:51:04.558Z,23.67
2019-02-14T03:53:31.988Z,22.17
2019-02-14T03:55:59.911Z,22.40
2019-02-14T03:58:27.258Z,22.90
2019-02-14T04:00:54.631Z,22.73
2019-02-14T04:03:22.122Z,24.27
2019-02-14T04:05:49.586Z,22.70
2019-02-14T04:08:17.012Z,23.33
2019-02-14T04:10:44.359Z,22.80
2019-02-14T04:13:11.828Z,23.40
2019-02-14T04:15:39.388Z,24.20
2019-02-14T04:18:06.887Z,24.93
2019-02-14T04:20:34.217Z,24.50
2019-02-14T04:23:01.573Z,23.20
2019-02-14T04:25:29.416Z,23.80
2019-02-14T04:27:56.774Z,25.73
2019-02-14T04:30:24.187Z,26.40
2019-02-14T04:32:51.914Z,26.07
2019-02-14T04:35:19.347Z,27.00
2019-02-14T04:37:46.718Z,27.60
2019-02-14T04:40:14.046Z,27.13
2019-02-14T04:42:41.464Z,28.53
2019-02-14T04:45:10.433Z,27.80
2019-02-14T04:47:37.872Z,27.20
2019-02-14T04:50:06.296Z,27.23
2019-02-14T04:52:33.640Z,26.20
2019-02-14T04:55:01.051Z,27.00
2019-02-14T04:57:28.557Z,26.27
2019-02-14T04:59:56.015Z,25.63
2019-02-14T05:02:26.614Z,26.87
2019-02-14T05:04:54.071Z,26.27
2019-02-14T05:07:21.532Z,26.30
2019-02-14T05:09:49.063Z,27.17
2019-02-14T05:12:16.796Z,28.47
2019-02-14T05:14:44.284Z,29.30
2019-02-14T05:17:11.766Z,27.07
2019-02-14T05:19:39.248Z,28.57
2019-02-14T05:22:06.753Z,29.33
2019-02-14T05:24:34.623Z,28.97
2019-02-14T05:27:02.165Z,28.47
2019-02-14T05:29:29.570Z,28.67
2019-02-14T05:31:57.028Z,26.33
2019-02-14T05:34:24.468Z,25.20
2019-02-14T05:36:54.668Z,25.60
2019-02-14T05:39:21.036Z,26.90
2019-02-14T05:41:48.762Z,26.90
2019-02-14T05:44:16.536Z,27.73
2019-02-14T05:46:43.978Z,30.00
2019-02-14T05:49:11.361Z,29.67
2019-02-14T05:51:39.975Z,29.60
2019-02-14T05:54:07.528Z,29.80
2019-02-14T05:56:34.972Z,31.73
2019-02-14T05:59:02.492Z,35.97
2019-02-14T06:01:30.620Z,35.70
2019-02-14T06:03:58.088Z,32.50
2019-02-14T06:06:25.518Z,31.93
2019-02-14T06:08:52.985Z,31.93
2019-02-14T06:11:20.406Z,30.43
2019-02-14T06:13:49.647Z,30.13
2019-02-14T06:16:17.043Z,31.20
2019-02-14T06:18:44.473Z,30.10
2019-02-14T06:21:11.907Z,28.10
2019-02-14T06:23:41.353Z,28.20
2019-02-14T06:26:08.883Z,28.87
2019-02-14T06:28:37.379Z,30.70
2019-02-14T06:31:04.850Z,32.90
2019-02-14T06:33:32.189Z,35.67
2019-02-14T06:35:59.632Z,34.83
2019-02-14T06:38:27.080Z,36.83
2019-02-14T06:40:54.615Z,34.33
2019-02-14T06:43:22.168Z,34.50
2019-02-14T06:45:50.772Z,34.70
2019-02-14T06:48:18.246Z,34.70
2019-02-14T06:50:45.628Z,34.20
2019-02-14T06:53:13.064Z,37.07
2019-02-14T06:55:42.952Z,37.37
2019-02-14T06:58:12.740Z,37.37
2019-02-14T07:00:39.448Z,38.43
2019-02-14T07:03:06.982Z,39.77
2019-02-14T07:05:34.306Z,39.23
2019-02-14T07:08:02.804Z,38.63
2019-02-14T07:10:30.133Z,37.87
2019-02-14T07:12:57.807Z,38.00
2019-02-14T07:15:25.229Z,37.17
2019-02-14T07:17:52.647Z,39.63
2019-02-14T07:20:20.029Z,39.40
2019-02-14T07:22:47.478Z,41.00
2019-02-14T07:25:14.949Z,43.47
2019-02-14T07:27:42.485Z,42.93
2019-02-14T07:30:14.008Z,42.77
2019-02-14T07:32:41.449Z,41.30
2019-02-14T07:35:09.447Z,39.07
2019-02-14T07:37:36.880Z,37.77
2019-02-14T07:40:05.975Z,37.20
2019-02-14T07:42:34.983Z,36.70
2019-02-14T07:45:02.415Z,35.97
2019-02-14T07:47:29.770Z,36.40
2019-02-14T07:49:58.635Z,34.90
2019-02-14T07:52:26.108Z,35.27
2019-02-14T07:54:53.566Z,35.93
2019-02-14T07:57:20.908Z,34.20
2019-02-14T07:59:48.383Z,36.87
2019-02-14T08:02:15.742Z,36.47
2019-02-14T08:04:43.095Z,34.43
2019-02-14T08:07:10.521Z,36.73
2019-02-14T08:09:37.931Z,38.30
2019-02-14T08:12:05.315Z,42.83
2019-02-14T08:14:32.687Z,43.00
2019-02-14T08:17:00.051Z,43.27
2019-02-14T08:19:27.461Z,41.93
2019-02-14T08:21:54.819Z,39.37
2019-02-14T08:24:22.259Z,35.43
2019-02-14T08:26:49.781Z,36.33
2019-02-14T08:29:17.191Z,37.30
2019-02-14T08:31:44.646Z,36.13
2019-02-14T08:34:12.203Z,35.97
2019-02-14T08:36:39.621Z,38.17
2019-02-14T08:39:07.078Z,36.70
2019-02-14T08:41:34.513Z,38.93
2019-02-14T08:44:01.921Z,38.23
2019-02-14T08:46:29.243Z,38.20
2019-02-14T08:48:56.695Z,36.80
2019-02-14T08:51:24.177Z,37.70
2019-02-14T08:53:53.228Z,38.07
2019-02-14T08:56:21.659Z,40.47
2019-02-14T08:58:49.080Z,42.10
2019-02-14T09:01:16.520Z,42.67
2019-02-14T09:03:43.935Z,42.07
2019-02-14T09:06:11.417Z,40.73
2019-02-14T09:08:38.912Z,41.47
2019-02-14T09:11:06.597Z,38.67
2019-02-14T09:13:34.128Z,40.90
2019-02-14T09:16:01.430Z,40.13
2019-02-14T09:18:29.620Z,42.10
2019-02-14T09:20:57.063Z,44.80
2019-02-14T09:23:24.483Z,42.13
2019-02-14T09:25:52.029Z,42.17
2019-02-14T09:28:19.396Z,40.67
2019-02-14T09:30:46.814Z,40.73
2019-02-14T09:33:15.363Z,38.87
2019-02-14T09:35:42.702Z,39.37
2019-02-14T09:38:11.029Z,38.63
2019-02-14T09:40:38.479Z,39.10
2019-02-14T09:43:05.796Z,41.93
2019-02-14T09:45:33.207Z,38.30
2019-02-14T09:48:00.723Z,39.27
2019-02-14T09:50:28.070Z,38.33
2019-02-14T09:52:55.600Z,41.47
2019-02-14T09:55:23.048Z,39.07
2019-02-14T09:57:50.613Z,46.80
2019-02-14T10:00:18.580Z,46.30
2019-02-14T10:02:45.909Z,44.50
2019-02-14T10:05:13.964Z,46.77
2019-02-14T10:07:41.452Z,46.40
2019-02-14T10:10:10.962Z,42.77
2019-02-14T10:12:38.506Z,45.70
2019-02-14T10:15:06.674Z,43.77
2019-02-14T10:17:34.055Z,42.47
2019-02-14T10:20:01.537Z,43.57
2019-02-14T10:22:28.995Z,46.13
2019-02-14T10:24:56.485Z,44.10
2019-02-14T10:27:24.010Z,45.57
2019-02-14T10:29:51.468Z,45.30
2019-02-14T10:32:18.886Z,41.30
2019-02-14T10:34:46.408Z,45.27
2019-02-14T10:37:14.105Z,39.87
2019-02-14T10:39:41.698Z,40.03
2019-02-14T10:42:09.214Z,40.57
2019-02-14T10:44:36.626Z,38.53
2019-02-14T10:47:04.160Z,41.90
2019-02-14T10:49:31.725Z,36.87
2019-02-14T10:51:59.211Z,36.67
2019-02-14T10:54:26.539Z,35.07
2019-02-14T10:56:54.058Z,38.17
2019-02-14T10:59:22.221Z,37.10
2019-02-14T11:01:49.658Z,35.63
2019-02-14T11:04:17.162Z,37.80
2019-02-14T11:06:44.570Z,36.03
2019-02-14T11:09:12.043Z,34.73
2019-02-14T11:11:41.789Z,32.00
2019-02-14T11:14:09.164Z,32.97
2019-02-14T11:16:36.579Z,32.33
2019-02-14T11:19:03.938Z,33.20
2019-02-14T11:21:31.279Z,31.93
2019-02-14T11:23:58.729Z,26.20
2019-02-14T11:26:26.220Z,30.23
2019-02-14T11:28:53.538Z,32.13
2019-02-14T11:31:22.607Z,36.83
2019-02-14T11:33:50.050Z,37.23
2019-02-14T11:36:17.853Z,37.33
2019-02-14T11:38:45.272Z,39.57
2019-02-14T11:41:13.485Z,38.57
2019-02-14T11:43:41.013Z,35.23
2019-02-14T11:46:08.408Z,30.93
2019-02-14T11:48:35.954Z,36.13
2019-02-14T11:51:03.414Z,36.87
2019-02-14T11:53:30.916Z,36.23
2019-02-14T11:55:58.326Z,40.97
2019-02-14T11:58:25.788Z,31.80
2019-02-14T12:00:53.238Z,39.10
2019-02-14T12:03:24.936Z,35.43
2019-02-14T12:05:52.402Z,31.40
2019-02-14T12:08:20.057Z,27.23
2019-02-14T12:10:47.549Z,29.23
2019-02-14T12:13:14.945Z,32.20
2019-02-14T12:15:42.298Z,31.07
2019-02-14T12:18:09.742Z,31.57
2019-02-14T12:20:39.767Z,32.23
2019-02-14T12:23:07.117Z,30.73
2019-02-14T12:25:34.623Z,32.83
2019-02-14T12:28:02.137Z,31.23
2019-02-14T12:30:29.559Z,32.77
2019-02-14T12:32:57.049Z,33.17
2019-02-14T12:35:24.456Z,32.33
2019-02-14T12:37:51.877Z,32.17
2019-02-14T12:40:19.301Z,33.33
2019-02-14T12:42:46.780Z,34.53
2019-02-14T12:45:20.504Z,35.40
2019-02-14T12:47:44.735Z,35.77
2019-02-14T12:50:12.633Z,39.07
2019-02-14T12:52:40.089Z,37.43
2019-02-14T12:55:07.495Z,36.77
2019-02-14T12:57:34.813Z,37.80
2019-02-14T13:00:02.333Z,37.63
2019-02-14T13:02:29.761Z,40.57
2019-02-14T13:04:57.174Z,38.67
2019-02-14T13:07:24.895Z,37.63
2019-02-14T13:09:52.362Z,36.83
2019-02-14T13:12:19.757Z,38.97
2019-02-14T13:14:47.196Z,36.53
2019-02-14T13:17:14.780Z,36.17
2019-02-14T13:19:42.129Z,33.57
2019-02-14T13:22:09.588Z,32.33
2019-02-14T13:24:38.439Z,33.30
2019-02-14T13:27:05.846Z,30.87
2019-02-14T13:29:33.258Z,32.30
2019-02-14T13:32:00.591Z,33.83
2019-02-14T13:34:28.101Z,38.30
2019-02-14T13:37:01.624Z,42.57
2019-02-14T13:39:29.712Z,45.23
2019-02-14T13:41:54.097Z,44.33
2019-02-14T13:44:21.616Z,41.70
2019-02-14T13:46:50.755Z,40.43
2019-02-14T13:49:18.135Z,36.90
2019-02-14T13:51:45.527Z,41.60
2019-02-14T13:54:13.001Z,37.20
2019-02-14T13:56:42.795Z,37.53
2019-02-14T13:59:10.286Z,36.90
2019-02-14T14:01:37.816Z,35.67
2019-02-14T14:04:07.057Z,37.13
2019-02-14T14:06:34.487Z,37.00
2019-02-14T14:09:01.900Z,35.93
2019-02-14T14:11:37.432Z,41.07
2019-02-14T14:14:06.670Z,41.50
2019-02-14T14:16:35.984Z,42.17
2019-02-14T14:19:06.392Z,38.47
2019-02-14T14:21:33.480Z,38.37
2019-02-14T14:24:00.958Z,39.17
2019-02-14T14:26:29.004Z,40.83
2019-02-14T14:28:56.509Z,41.23
2019-02-14T14:31:25.144Z,39.80
2019-02-14T14:33:52.571Z,41.03
2019-02-14T14:36:20.044Z,41.40
2019-02-14T14:38:47.513Z,39.33
2019-02-14T14:41:14.926Z,40.10
2019-02-14T14:43:44.405Z,42.83
2019-02-14T14:46:13.516Z,40.67
2019-02-14T14:48:40.924Z,38.17
2019-02-14T14:51:08.376Z,37.70
2019-02-14T14:53:35.931Z,39.30
2019-02-14T14:56:03.346Z,41.20
2019-02-14T14:58:30.916Z,39.10
2019-02-14T15:00:58.352Z,36.47
2019-02-14T15:03:25.766Z,37.17
2019-02-14T15:05:54.199Z,36.63
2019-02-14T15:08:23.500Z,36.10
2019-02-14T15:10:50.902Z,37.10
2019-02-14T15:13:18.421Z,43.13
2019-02-14T15:15:45.830Z,42.27
2019-02-14T15:18:13.246Z,42.10
2019-02-14T15:20:40.800Z,47.77
2019-02-14T15:23:09.355Z,47.00
2019-02-14T15:25:36.885Z,52.63
2019-02-14T15:28:04.374Z,48.67
2019-02-14T15:30:33.734Z,47.70
2019-02-14T15:33:01.133Z,48.93
2019-02-14T15:35:28.645Z,47.27
2019-02-14T15:37:56.046Z,45.13
2019-02-14T15:40:24.028Z,53.80
2019-02-14T15:42:52.419Z,55.03
2019-02-14T15:45:19.746Z,58.57
2019-02-14T15:47:47.172Z,62.37
2019-02-14T15:50:14.749Z,62.63
2019-02-14T15:52:42.306Z,66.63
2019-02-14T15:55:09.777Z,59.67
2019-02-14T15:57:37.299Z,62.67
2019-02-14T16:00:09.635Z,65.27
2019-02-14T16:02:35.920Z,63.87
2019-02-14T16:05:03.531Z,53.40
2019-02-14T16:07:31.040Z,55.40
2019-02-14T16:10:00.461Z,57.23
2019-02-14T16:12:27.692Z,56.10
2019-02-14T16:14:55.093Z,59.03
2019-02-14T16:17:22.602Z,56.57
2019-02-14T16:19:51.775Z,52.80
2019-02-14T16:22:19.568Z,59.23
2019-02-14T16:24:47.244Z,59.70
2019-02-14T16:27:15.148Z,61.27
2019-02-14T16:29:42.574Z,64.93
2019-02-14T16:32:09.978Z,62.80
2019-02-14T16:34:37.612Z,63.63
2019-02-14T16:37:06.264Z,60.80
2019-02-14T16:39:33.758Z,58.63
2019-02-14T16:42:02.888Z,56.27
2019-02-14T16:44:30.422Z,58.33
2019-02-14T16:46:58.322Z,63.27
2019-02-14T16:49:25.949Z,62.60
2019-02-14T16:51:53.456Z,58.87
2019-02-14T16:54:20.968Z,58.90
2019-02-14T16:56:48.465Z,53.43
2019-02-14T16:59:15.896Z,52.73
2019-02-14T17:01:43.471Z,54.13
2019-02-14T17:04:12.117Z,53.20
2019-02-14T17:06:48.067Z,49.77
2019-02-14T17:09:11.004Z,62.33
2019-02-14T17:11:38.617Z,61.30
2019-02-14T17:14:07.706Z,65.63
2019-02-14T17:16:35.293Z,59.43
2019-02-14T17:19:02.937Z,51.63
2019-02-14T17:21:30.349Z,59.33
2019-02-14T17:23:58.132Z,62.37
2019-02-14T17:26:26.088Z,59.93
2019-02-14T17:29:00.307Z,76.53
2019-02-14T17:31:30.574Z,58.77
2019-02-14T17:33:59.201Z,54.43
2019-02-14T17:36:27.693Z,52.10
2019-02-14T17:38:56.877Z,48.13
2019-02-14T17:41:24.347Z,47.00
2019-02-14T17:43:55.664Z,47.77
2019-02-14T17:46:26.033Z,43.13
2019-02-14T17:48:55.101Z,43.33
2019-02-14T17:51:24.757Z,46.93
2019-02-14T17:54:03.447Z,51.90
2019-02-14T17:56:32.578Z,47.40
2019-02-14T17:59:01.681Z,47.33
2019-02-14T18:01:29.329Z,47.97
2019-02-14T18:03:59.729Z,53.77
2019-02-14T18:06:27.853Z,50.33
2019-02-14T18:08:57.589Z,51.43
2019-02-14T18:11:25.121Z,51.53
2019-02-14T18:13:57.773Z,54.07
2019-02-14T18:16:25.144Z,55.30
2019-02-14T18:18:52.567Z,56.00
2019-02-14T18:21:24.045Z,55.00
2019-02-14T18:23:51.921Z,55.23
2019-02-14T18:26:19.349Z,53.70
2019-02-14T18:28:47.170Z,57.83
2019-02-14T18:31:15.287Z,53.17
2019-02-14T18:33:42.705Z,56.27
2019-02-14T18:36:10.195Z,55.90
2019-02-14T18:38:37.806Z,57.67
2019-02-14T18:41:11.097Z,58.53
2019-02-14T18:43:38.585Z,59.77
2019-02-14T18:46:06.276Z,60.43
2019-02-14T18:48:36.513Z,62.47
2019-02-14T18:51:04.155Z,61.33
2019-02-14T18:53:31.818Z,62.63
2019-02-14T18:55:59.333Z,60.83
2019-02-14T18:58:28.556Z,61.37
2019-02-14T19:00:59.422Z,55.60
2019-02-14T19:03:27.348Z,56.27
2019-02-14T19:05:54.923Z,57.57
2019-02-14T19:08:22.643Z,63.27
2019-02-14T19:10:52.047Z,62.00
2019-02-14T19:13:21.503Z,59.73
2019-02-14T19:15:52.554Z,62.20
2019-02-14T19:18:20.442Z,55.83
2019-02-14T19:20:48.035Z,55.27
2019-02-14T19:23:24.199Z,53.40
2019-02-14T19:25:47.628Z,53.57
2019-02-14T19:28:15.179Z,54.63
2019-02-14T19:30:43.295Z,53.90
2019-02-14T19:33:10.790Z,47.07
2019-02-14T19:35:38.235Z,45.77
2019-02-14T19:38:05.729Z,50.43
2019-02-14T19:40:33.277Z,48.10
2019-02-14T19:43:00.741Z,48.57
2019-02-14T19:45:36.397Z,47.13
2019-02-14T19:47:57.411Z,51.07
2019-02-14T19:50:24.904Z,45.47
2019-02-14T19:52:54.242Z,46.00
2019-02-14T19:55:21.729Z,49.10
2019-02-14T19:57:49.265Z,41.73
2019-02-14T20:00:16.740Z,42.10
2019-02-14T20:02:44.201Z,41.00
2019-02-14T20:05:12.268Z,40.53
2019-02-14T20:07:42.011Z,38.20
2019-02-14T20:10:13.115Z,39.07
2019-02-14T20:12:40.713Z,43.93
2019-02-14T20:15:09.854Z,47.83
2019-02-14T20:17:37.341Z,43.80
2019-02-14T20:20:08.308Z,42.67
2019-02-14T20:22:37.341Z,43.87
2019-02-14T20:25:11.803Z,42.00
2019-02-14T20:27:46.849Z,41.93
2019-02-14T20:30:14.584Z,40.97
2019-02-14T20:32:51.311Z,42.93
2019-02-14T20:35:18.719Z,46.30
2019-02-14T20:37:59.774Z,44.30
2019-02-14T20:40:27.442Z,45.93
2019-02-14T20:42:54.969Z,53.47
2019-02-14T20:45:22.634Z,51.97
2019-02-14T20:47:50.331Z,51.50
2019-02-14T20:50:17.966Z,50.23
2019-02-14T20:52:45.451Z,50.00
2019-02-14T20:55:14.534Z,49.37
2019-02-14T20:57:49.739Z,59.57
2019-02-14T21:00:17.484Z,55.40
2019-02-14T21:02:46.554Z,56.33
2019-02-14T21:05:14.063Z,51.20
2019-02-14T21:07:41.546Z,49.43
2019-02-14T21:10:08.989Z,50.00
2019-02-14T21:12:36.526Z,54.90
2019-02-14T21:15:04.160Z,51.70
2019-02-14T21:17:31.632Z,51.73
2019-02-14T21:19:59.140Z,49.03
2019-02-14T21:22:26.508Z,48.87
2019-02-14T21:24:54.075Z,47.23
2019-02-14T21:27:22.807Z,46.43
2019-02-14T21:29:50.246Z,46.93
2019-02-14T21:32:17.906Z,48.33
2019-02-14T21:34:45.480Z,47.07
2019-02-14T21:37:14.048Z,53.67
2019-02-14T21:39:41.623Z,54.87
2019-02-14T21:42:20.032Z,55.07
2019-02-14T21:44:38.231Z,48.63
2019-02-14T21:47:05.770Z,47.57
2019-02-14T21:49:33.309Z,43.60
2019-02-14T21:52:00.831Z,45.73
2019-02-14T21:54:29.526Z,44.27
2019-02-14T21:56:56.983Z,43.00
2019-02-14T21:59:24.355Z,44.83
2019-02-14T22:01:51.806Z,44.57
2019-02-14T22:04:20.456Z,45.80
2019-02-14T22:06:47.900Z,46.83
2019-02-14T22:09:15.314Z,49.03
2019-02-14T22:11:42.828Z,46.00
2019-02-14T22:14:10.970Z,46.00
2019-02-14T22:16:38.420Z,46.13
2019-02-14T22:19:06.227Z,48.33
2019-02-14T22:21:33.739Z,47.90
2019-02-14T22:24:01.303Z,47.70
2019-02-14T22:26:28.832Z,48.13
2019-02-14T22:28:56.320Z,49.37
2019-02-14T22:31:23.720Z,50.30
2019-02-14T22:33:51.201Z,49.10
2019-02-14T22:36:19.292Z,47.97
2019-02-14T22:38:46.624Z,46.70
2019-02-14T22:57:20.452Z,58.43
2019-02-14T22:59:47.868Z,56.93
2019-02-14T23:02:15.300Z,52.57
2019-02-14T23:04:42.821Z,62.20
2019-02-14T23:07:10.239Z,71.47
2019-02-14T23:09:37.729Z,72.73
2019-02-14T23:12:05.059Z,59.33
2019-02-14T23:14:33.606Z,59.40
2019-02-14T23:17:01.048Z,71.33
2019-02-14T23:19:29.662Z,81.63
2019-02-14T23:22:00.652Z,83.30
2019-02-14T23:24:31.081Z,81.43
2019-02-14T23:27:00.272Z,77.33
2019-02-14T23:29:28.895Z,79.80
2019-02-14T23:31:58.699Z,72.80
2019-02-14T23:34:27.463Z,76.03
2019-02-14T23:36:57.292Z,73.97
2019-02-14T23:39:25.965Z,75.07
2019-02-14T23:41:57.569Z,72.70
2019-02-14T23:44:24.767Z,74.03
2019-02-14T23:46:52.549Z,68.73
2019-02-14T23:49:20.078Z,69.83
2019-02-14T23:51:47.403Z,79.07
2019-02-14T23:54:16.517Z,71.87
2019-02-14T23:56:43.912Z,68.27
2019-02-14T23:59:11.682Z,70.47
